| time (UTC) | temp F | wind direction | speed knots | gust knots | rain 1hr in | rain 24hr in | rain mn in | humidity % | barometer mb |
| 20260509173042 | 55 | 279 | 0.9 | 7.0 | 0.00 | 0.23 | 0.15 | 92 | 1010.3 |
| 20260509171545 | 54 | 167 | 0.9 | 4.3 | 0.00 | 0.23 | 0.15 | 93 | 1010.1 |
| 20260509170042 | 53 | 0 | 0.9 | 4.3 | 0.02 | 0.23 | 0.15 | 94 | 1010.1 |
| 20260509164543 | 53 | 215 | 0.9 | 5.2 | 0.02 | 0.23 | 0.15 | 94 | 1010.1 |
| 20260509163046 | 52 | 46 | 0.9 | 3.5 | 0.02 | 0.23 | 0.15 | 94 | 1010.2 |
| 20260509161545 | 51 | 0 | 0.0 | 3.5 | 0.02 | 0.23 | 0.15 | 94 | 1010.1 |
| 20260509160045 | 51 | 173 | 0.9 | 4.3 | 0.00 | 0.21 | 0.13 | 94 | 1009.9 |
| 20260509154544 | 51 | 264 | 0.9 | 5.2 | 0.00 | 0.21 | 0.13 | 94 | 1009.9 |
| 20260509153048 | 51 | 69 | 0.9 | 4.3 | 0.00 | 0.21 | 0.13 | 94 | 1010.0 |
| 20260509151545 | 51 | 304 | 0.9 | 5.2 | 0.00 | 0.21 | 0.13 | 94 | 1010.0 |
| 20260509150045 | 51 | 281 | 0.0 | 2.6 | 0.02 | 0.21 | 0.13 | 94 | 1009.9 |
| 20260509144542 | 50 | 147 | 0.0 | 2.6 | 0.04 | 0.21 | 0.13 | 95 | 1010.0 |
| 20260509143057 | 50 | 0 | 0.9 | 3.5 | 0.04 | 0.21 | 0.13 | 94 | 1010.0 |
| 20260509141543 | 50 | 0 | 0.0 | 2.6 | 0.04 | 0.21 | 0.13 | 95 | 1010.2 |
| 20260509140058 | 50 | 338 | 1.7 | 4.3 | 0.03 | 0.19 | 0.11 | 95 | 1010.2 |
| 20260509134542 | 50 | 347 | 0.9 | 5.2 | 0.02 | 0.17 | 0.09 | 95 | 1010.2 |
| 20260509133045 | 50 | 100 | 0.9 | 3.5 | 0.03 | 0.17 | 0.09 | 95 | 1010.3 |
| 20260509131542 | 50 | 0 | 0.0 | 1.7 | 0.05 | 0.17 | 0.09 | 94 | 1010.4 |
| 20260509130041 | 49 | 46 | 0.9 | 4.3 | 0.04 | 0.16 | 0.08 | 94 | 1010.4 |
| 20260509124540 | 49 | 153 | 1.7 | 4.3 | 0.04 | 0.15 | 0.07 | 94 | 1010.3 |
| 20260509123047 | 49 | 64 | 0.9 | 3.5 | 0.03 | 0.14 | 0.06 | 94 | 1010.4 |
| 20260509121543 | 49 | 195 | 0.0 | 3.5 | 0.01 | 0.12 | 0.04 | 94 | 1010.5 |
| 20260509120045 | 49 | 165 | 0.9 | 3.5 | 0.01 | 0.12 | 0.04 | 94 | 1010.4 |
| 20260509114542 | 49 | 296 | 0.9 | 5.2 | 0.00 | 0.11 | 0.03 | 94 | 1010.4 |
| 20260509113039 | 48 | 223 | 1.7 | 4.3 | 0.00 | 0.11 | 0.03 | 94 | 1010.3 |
| 20260509111538 | 48 | 0 | 0.9 | 3.5 | 0.00 | 0.11 | 0.03 | 94 | 1010.4 |
| 20260509110045 | 48 | 175 | 0.0 | 3.5 | 0.01 | 0.11 | 0.03 | 94 | 1010.4 |
| 20260509104543 | 48 | 0 | 0.0 | 4.3 | 0.01 | 0.11 | 0.03 | 94 | 1010.4 |
| 20260509103050 | 47 | 269 | 1.7 | 4.3 | 0.01 | 0.11 | 0.03 | 94 | 1010.3 |
| 20260509101544 | 47 | 0 | 0.0 | 0.0 | 0.00 | 0.10 | 0.02 | 94 | 1010.4 |
| 20260509100049 | 46 | 0 | 0.0 | 0.0 | 0.01 | 0.10 | 0.02 | 95 | 1010.5 |
| 20260509094542 | 46 | 0 | 0.0 | 0.0 | 0.01 | 0.10 | 0.02 | 95 | 1010.6 |
| 20260509093043 | 46 | 0 | 0.0 | 1.7 | 0.01 | 0.10 | 0.02 | 94 | 1010.6 |
| 20260509091541 | 46 | 51 | 0.9 | 3.5 | 0.01 | 0.10 | 0.02 | 94 | 1010.5 |
| 20260509090048 | 46 | 0 | 0.0 | 0.0 | 0.00 | 0.09 | 0.01 | 94 | 1010.7 |
| 20260509084539 | 46 | 0 | 0.0 | 0.0 | 0.00 | 0.09 | 0.01 | 94 | 1010.7 |
| 20260509083051 | 46 | 0 | 0.0 | 0.0 | 0.00 | 0.09 | 0.01 | 94 | 1010.8 |
| 20260509081543 | 46 | 0 | 0.0 | 0.0 | 0.00 | 0.09 | 0.01 | 94 | 1010.6 |
| 20260509080043 | 46 | 0 | 0.0 | 0.0 | 0.00 | 0.09 | 0.01 | 94 | 1010.5 |
| 20260509074545 | 46 | 0 | 0.0 | 0.0 | 0.00 | 0.09 | 0.01 | 94 | 1010.3 |
| 20260509073046 | 46 | 0 | 0.0 | 0.0 | 0.00 | 0.09 | 0.01 | 94 | 1010.5 |
| 20260509071549 | 46 | 0 | 0.0 | 0.0 | 0.00 | 0.09 | 0.01 | 94 | 1010.8 |
| 20260509070046 | 46 | 0 | 0.0 | 2.6 | 0.00 | 0.09 | 0.01 | 94 | 1010.9 |
| 20260509064546 | 46 | 0 | 0.0 | 2.6 | 0.00 | 0.09 | 0.01 | 94 | 1011.0 |
| 20260509063041 | 46 | 0 | 0.0 | 0.0 | 0.00 | 0.09 | 0.01 | 94 | 1011.2 |
| 20260509061552 | 46 | 140 | 0.9 | 2.6 | 0.00 | 0.09 | 0.01 | 94 | 1011.4 |
| 20260509060040 | 46 | 0 | 0.9 | 2.6 | 0.00 | 0.09 | 0.01 | 94 | 1011.6 |
| 20260509054551 | 46 | 0 | 0.9 | 3.5 | 0.00 | 0.09 | 0.01 | 94 | 1011.9 |
| 20260509053047 | 46 | 142 | 0.9 | 3.5 | 0.00 | 0.09 | 0.01 | 94 | 1012.0 |
| 20260509051543 | 46 | 140 | 0.0 | 2.6 | 0.01 | 0.09 | 0.01 | 94 | 1011.9 |
| 20260509050051 | 46 | 142 | 0.9 | 3.5 | 0.01 | 0.09 | 0.01 | 94 | 1012.3 |
| 20260509044539 | 46 | 0 | 0.0 | 0.0 | 0.02 | 0.09 | 0.01 | 94 | 1012.6 |
| 20260509043052 | 46 | 0 | 0.0 | 0.0 | 0.02 | 0.09 | 0.01 | 94 | 1012.8 |
| 20260509041545 | 46 | 0 | 0.0 | 0.0 | 0.02 | 0.08 | 0.00 | 94 | 1013.0 |
| 20260509040049 | 46 | 0 | 0.0 | 0.0 | 0.03 | 0.08 | 0.00 | 94 | 1013.3 |
| 20260509034542 | 47 | 0 | 0.0 | 0.0 | 0.02 | 0.07 | 0.07 | 93 | 1013.4 |
| 20260509033040 | 47 | 0 | 0.0 | 0.0 | 0.02 | 0.07 | 0.07 | 93 | 1013.4 |
| 20260509031552 | 47 | 0 | 0.0 | 0.0 | 0.02 | 0.06 | 0.06 | 93 | 1013.7 |
| 20260509030046 | 47 | 0 | 0.0 | 0.0 | 0.01 | 0.05 | 0.05 | 93 | 1013.6 |
| 20260509024543 | 47 | 0 | 0.0 | 0.0 | 0.01 | 0.05 | 0.05 | 93 | 1013.6 |
| 20260509023041 | 47 | 0 | 0.0 | 0.0 | 0.01 | 0.05 | 0.05 | 93 | 1013.6 |
| 20260509021544 | 47 | 0 | 0.0 | 0.0 | 0.00 | 0.04 | 0.04 | 92 | 1013.6 |
| 20260509020046 | 47 | 0 | 0.0 | 0.0 | 0.00 | 0.04 | 0.04 | 92 | 1013.2 |
| 20260509014545 | 47 | 0 | 0.0 | 0.0 | 0.00 | 0.04 | 0.04 | 92 | 1013.0 |
| 20260509013046 | 47 | 0 | 0.0 | 0.0 | 0.00 | 0.04 | 0.04 | 92 | 1013.0 |
| 20260509011547 | 47 | 0 | 0.0 | 1.7 | 0.00 | 0.04 | 0.04 | 92 | 1012.7 |
| 20260509010044 | 47 | 0 | 0.0 | 0.9 | 0.00 | 0.04 | 0.04 | 92 | 1012.7 |
| 20260509004549 | 47 | 0 | 0.0 | 0.9 | 0.00 | 0.04 | 0.04 | 92 | 1012.6 |
| 20260509003040 | 47 | 145 | 0.0 | 2.6 | 0.00 | 0.04 | 0.04 | 92 | 1012.4 |
| 20260509001545 | 48 | 145 | 1.7 | 3.5 | 0.00 | 0.04 | 0.04 | 92 | 1012.3 |
| 20260509000054 | 48 | 267 | 0.0 | 1.7 | 0.01 | 0.04 | 0.04 | 92 | 1012.5 |
| 20260508234545 | 48 | 267 | 0.9 | 2.6 | 0.01 | 0.04 | 0.04 | 91 | 1012.5 |
| 20260508233045 | 48 | 0 | 0.0 | 0.0 | 0.01 | 0.04 | 0.04 | 90 | 1012.5 |
| 20260508231548 | 49 | 0 | 0.0 | 1.7 | 0.02 | 0.04 | 0.04 | 90 | 1012.5 |
| 20260508230041 | 49 | 267 | 0.9 | 7.0 | 0.01 | 0.03 | 0.03 | 87 | 1012.4 |
| 20260508224550 | 49 | 0 | 2.6 | 8.7 | 0.01 | 0.03 | 0.03 | 87 | 1012.4 |
| 20260508223043 | 50 | 121 | 2.6 | 9.6 | 0.01 | 0.03 | 0.03 | 83 | 1012.8 |
| 20260508221544 | 51 | 257 | 1.7 | 10.4 | 0.00 | 0.02 | 0.02 | 80 | 1012.9 |
| 20260508220048 | 52 | 281 | 1.7 | 7.0 | 0.00 | 0.02 | 0.02 | 78 | 1012.7 |
| 20260508214542 | 53 | 275 | 2.6 | 10.4 | 0.00 | 0.02 | 0.02 | 77 | 1012.6 |
| 20260508213057 | 53 | 302 | 3.5 | 10.4 | 0.00 | 0.02 | 0.02 | 76 | 1012.5 |
| 20260508211545 | 53 | 267 | 3.5 | 12.2 | 0.01 | 0.02 | 0.02 | 76 | 1012.5 |
| 20260508210048 | 53 | 221 | 1.7 | 7.0 | 0.01 | 0.02 | 0.02 | 78 | 1012.6 |
| 20260508204544 | 52 | 283 | 3.5 | 13.9 | 0.01 | 0.02 | 0.02 | 79 | 1012.6 |
| 20260508203050 | 52 | 271 | 2.6 | 9.6 | 0.01 | 0.02 | 0.02 | 80 | 1012.6 |
| 20260508201551 | 53 | 277 | 2.6 | 7.8 | 0.00 | 0.01 | 0.01 | 80 | 1012.8 |
| 20260508200043 | 53 | 264 | 2.6 | 7.8 | 0.00 | 0.01 | 0.01 | 79 | 1012.7 |
| 20260508194548 | 53 | 211 | 1.7 | 6.1 | 0.00 | 0.01 | 0.01 | 80 | 1012.9 |
| 20260508193053 | 53 | 275 | 1.7 | 5.2 | 0.01 | 0.01 | 0.01 | 82 | 1012.9 |
| 20260508191542 | 52 | 268 | 2.6 | 8.7 | 0.01 | 0.01 | 0.01 | 81 | 1013.1 |
| 20260508190044 | 52 | 0 | 1.7 | 5.2 | 0.01 | 0.01 | 0.01 | 83 | 1013.0 |
| 20260508184547 | 53 | 0 | 0.0 | 5.2 | 0.01 | 0.01 | 0.01 | 81 | 1012.6 |
| 20260508183046 | 55 | 0 | 2.6 | 6.1 | 0.00 | 0.00 | 0.00 | 70 | 1012.8 |
| 20260508181608 | 56 | 296 | 0.9 | 6.1 | 0.00 | 0.00 | 0.00 | 64 | 1012.4 |
| 20260508174542 | 57 | 260 | 5.2 | 11.3 | 0.00 | 0.00 | 0.00 | 61 | 1012.7 |